createdAt,value
2023-01-28T00:01:42.931Z,103080.88
2023-01-28T00:04:12.444Z,103085.06
2023-01-28T00:06:40.987Z,103084.16
2023-01-28T00:09:09.816Z,103079.78
2023-01-28T00:11:39.885Z,103075.47
2023-01-28T00:14:08.985Z,103081.56
2023-01-28T00:16:37.667Z,103078.06
2023-01-28T00:19:06.356Z,103074.69
2023-01-28T00:21:34.922Z,103069.50
2023-01-28T00:24:03.608Z,103067.91
2023-01-28T00:26:32.205Z,103071.28
2023-01-28T00:29:02.184Z,103069.69
2023-01-28T00:31:31.330Z,103070.59
2023-01-28T00:33:59.914Z,103070.59
2023-01-28T00:36:29.010Z,103061.09
2023-01-28T00:39:00.180Z,103059.44
2023-01-28T00:41:31.066Z,103057.75
2023-01-28T00:44:02.319Z,103054.13
2023-01-28T00:46:30.831Z,103057.53
2023-01-28T00:48:59.558Z,103059.31
2023-01-28T00:51:28.246Z,103056.72
2023-01-28T00:53:56.841Z,103064.50
2023-01-28T00:56:25.428Z,103067.09
2023-01-28T00:58:54.328Z,103069.69
2023-01-28T01:01:26.908Z,103060.13
2023-01-28T01:04:03.182Z,103060.03
2023-01-28T01:06:35.442Z,103062.50
2023-01-28T01:09:08.406Z,103057.31
2023-01-28T01:11:37.359Z,103066.81
2023-01-28T01:14:07.291Z,103069.50
2023-01-28T01:16:38.912Z,103064.31
2023-01-28T01:19:09.514Z,103069.59
2023-01-28T01:21:38.413Z,103064.41
2023-01-28T01:24:08.094Z,103063.50
2023-01-28T01:26:37.127Z,103069.59
2023-01-28T01:29:06.451Z,103075.59
2023-01-28T01:31:37.008Z,103067.69
2023-01-28T01:34:05.717Z,103070.28
2023-01-28T01:36:34.428Z,103079.88
2023-01-28T01:39:03.245Z,103072.88
2023-01-28T01:41:34.461Z,103081.47
2023-01-28T01:44:05.230Z,103077.88
2023-01-28T01:46:42.268Z,103072.69
2023-01-28T01:49:20.263Z,103070.88
2023-01-28T01:51:54.339Z,103081.25
2023-01-28T01:54:26.233Z,103076.97
2023-01-28T01:56:55.527Z,103084.66
2023-01-28T01:59:30.096Z,103074.09
2023-01-28T02:02:03.089Z,103074.16
2023-01-28T02:04:36.083Z,103073.38
2023-01-28T02:07:04.964Z,103073.38
2023-01-28T02:09:38.563Z,103068.28
2023-01-28T02:12:11.229Z,103066.38
2023-01-28T02:14:45.089Z,103074.88
2023-01-28T02:17:15.547Z,103075.69
2023-01-28T02:19:49.897Z,103072.78
2023-01-28T02:22:57.861Z,103078.63
2023-01-28T02:26:05.384Z,103071.56
2023-01-28T02:28:42.070Z,103071.66
2023-01-28T02:31:17.471Z,103077.84
2023-01-28T02:33:53.938Z,103083.16
2023-01-28T02:36:31.790Z,103077.03
2023-01-28T02:39:08.633Z,103074.25
2023-01-28T02:41:42.149Z,103068.25
2023-01-28T02:44:11.845Z,103073.44
2023-01-28T02:46:57.673Z,103072.66
2023-01-28T02:49:30.589Z,103078.75
2023-01-28T02:52:20.116Z,103066.59
2023-01-28T02:54:59.953Z,103069.19
2023-01-28T02:57:38.815Z,103064.06
2023-01-28T03:00:16.601Z,103062.50
2023-01-28T03:02:54.686Z,103066.91
2023-01-28T03:05:28.237Z,103072.97
2023-01-28T03:07:57.311Z,103068.69
2023-01-28T03:10:27.789Z,103067.09
2023-01-28T03:13:16.842Z,103068.09
2023-01-28T03:16:07.423Z,103062.91
2023-01-28T03:19:02.703Z,103075.88
2023-01-28T03:21:53.727Z,103069.09
2023-01-28T03:24:44.771Z,103057.91
2023-01-28T03:27:38.220Z,103061.22
2023-01-28T03:30:31.577Z,103059.50
2023-01-28T03:33:19.649Z,103058.53
2023-01-28T03:36:08.182Z,103058.53
2023-01-28T03:38:42.193Z,103051.66
2023-01-28T03:41:12.539Z,103052.44
2023-01-28T03:43:41.440Z,103059.19
2023-01-28T03:46:09.793Z,103055.59
2023-01-28T03:48:39.563Z,103065.91
2023-01-28T03:51:08.300Z,103065.09
2023-01-28T03:53:36.830Z,103070.38
2023-01-28T03:56:05.487Z,103069.50
2023-01-28T03:58:53.037Z,103070.28
2023-01-28T04:01:21.933Z,103080.63
2023-01-28T04:03:51.969Z,103078.03
2023-01-28T04:06:20.408Z,103071.16
2023-01-28T04:08:53.152Z,103078.16
2023-01-28T04:11:21.944Z,103069.56
2023-01-28T04:13:50.696Z,103078.28
2023-01-28T04:16:20.461Z,103071.28
2023-01-28T04:18:48.991Z,103079.94
2023-01-28T04:21:18.822Z,103081.63
2023-01-28T04:23:47.194Z,103072.84
2023-01-28T04:26:15.536Z,103071.06
2023-01-28T04:28:43.910Z,103070.06
2023-01-28T04:31:12.299Z,103059.72
2023-01-28T04:33:40.674Z,103056.22
2023-01-28T04:36:09.761Z,103049.34
2023-01-28T04:38:39.505Z,103051.03
2023-01-28T04:41:07.811Z,103052.72
2023-01-28T04:43:36.189Z,103052.63
2023-01-28T04:46:04.592Z,103052.50
2023-01-28T04:48:32.986Z,103043.84
2023-01-28T04:51:01.700Z,103045.63
2023-01-28T04:53:30.461Z,103055.91
2023-01-28T04:56:00.295Z,103056.81
2023-01-28T04:58:29.059Z,103055.91
2023-01-28T05:01:07.745Z,103054.22
2023-01-28T05:03:36.535Z,103051.41
2023-01-28T05:06:05.597Z,103053.91
2023-01-28T05:08:34.144Z,103056.50
2023-01-28T05:11:03.904Z,103050.31
2023-01-28T05:13:32.148Z,103050.31
2023-01-28T05:16:00.718Z,103043.31
2023-01-28T05:18:29.089Z,103039.75
2023-01-28T05:20:57.480Z,103044.94
2023-01-28T05:23:25.966Z,103036.16
2023-01-28T05:25:54.324Z,103034.25
2023-01-28T05:28:24.285Z,103027.16
2023-01-28T05:30:52.720Z,103025.38
2023-01-28T05:33:21.134Z,103019.31
2023-01-28T05:35:49.875Z,103020.19
2023-01-28T05:38:18.251Z,103028.75
2023-01-28T05:40:46.570Z,103023.56
2023-01-28T05:43:15.225Z,103026.25
2023-01-28T05:45:44.999Z,103037.63
2023-01-28T05:48:13.435Z,103030.75
2023-01-28T05:50:42.137Z,103017.78
2023-01-28T05:53:10.898Z,103017.78
2023-01-28T05:55:39.328Z,103013.31
2023-01-28T05:58:07.953Z,103023.56
2023-01-28T06:00:36.384Z,103025.19
2023-01-28T06:03:06.120Z,103021.59
2023-01-28T06:05:34.684Z,103028.56
2023-01-28T06:08:03.124Z,103032.03
2023-01-28T06:10:31.964Z,103026.84
2023-01-28T06:13:00.375Z,103028.56
2023-01-28T06:15:29.096Z,103032.84
2023-01-28T06:17:57.515Z,103032.84
2023-01-28T06:20:27.308Z,103033.53
2023-01-28T06:22:55.609Z,103039.72
2023-01-28T06:25:23.946Z,103045.69
2023-01-28T06:27:52.224Z,103046.56
2023-01-28T06:30:20.798Z,103049.97
2023-01-28T06:32:49.188Z,103049.09
2023-01-28T06:35:17.654Z,103049.84
2023-01-28T06:37:47.497Z,103055.03
2023-01-28T06:40:16.507Z,103054.25
2023-01-28T06:42:45.068Z,103054.16
2023-01-28T06:45:13.401Z,103049.78
2023-01-28T06:47:42.014Z,103050.56
2023-01-28T06:50:13.011Z,103043.47
2023-01-28T06:52:41.683Z,103043.47
2023-01-28T06:55:11.966Z,103054.72
2023-01-28T06:57:40.692Z,103058.91
2023-01-28T07:00:13.617Z,103064.00
2023-01-28T07:02:42.359Z,103070.97
2023-01-28T07:05:11.961Z,103067.38
2023-01-28T07:07:42.047Z,103071.66
2023-01-28T07:10:13.273Z,103083.16
2023-01-28T07:12:41.959Z,103072.66
2023-01-28T07:15:12.137Z,103074.19
2023-01-28T07:17:41.906Z,103073.00
2023-01-28T07:20:14.778Z,103081.38
2023-01-28T07:22:45.240Z,103087.34
2023-01-28T07:25:16.598Z,103087.38
2023-01-28T07:27:52.529Z,103088.34
2023-01-28T07:30:24.267Z,103084.34
2023-01-28T07:32:56.038Z,103084.56
2023-01-28T07:35:25.026Z,103077.81
2023-01-28T07:37:54.302Z,103072.84
2023-01-28T07:40:25.178Z,103082.72
2023-01-28T07:42:55.334Z,103084.75
2023-01-28T07:45:24.783Z,103079.25
2023-01-28T07:47:57.334Z,103076.19
2023-01-28T07:50:26.066Z,103081.91
2023-01-28T07:52:54.684Z,103079.31
2023-01-28T07:55:24.482Z,103068.09
2023-01-28T07:57:54.623Z,103063.81
2023-01-28T08:00:24.762Z,103079.31
2023-01-28T08:02:57.728Z,103080.88
2023-01-28T08:05:28.251Z,103075.72
2023-01-28T08:07:56.607Z,103077.53
2023-01-28T08:10:27.626Z,103082.78
2023-01-28T08:12:58.871Z,103101.69
2023-01-28T08:15:27.513Z,103099.88
2023-01-28T08:17:56.302Z,103103.47
2023-01-28T08:20:25.441Z,103098.44
2023-01-28T08:22:53.861Z,103112.38
2023-01-28T08:25:22.302Z,103122.69
2023-01-28T08:27:52.386Z,103124.47
2023-01-28T08:30:20.925Z,103133.25
2023-01-28T08:32:49.586Z,103141.34
2023-01-28T08:35:18.085Z,103136.31
2023-01-28T08:37:46.380Z,103128.78
2023-01-28T08:40:15.142Z,103150.59
2023-01-28T08:42:49.308Z,103140.47
2023-01-28T08:45:20.245Z,103140.47
2023-01-28T08:47:52.581Z,103144.97
2023-01-28T08:50:22.610Z,103151.16
2023-01-28T08:52:56.646Z,103151.28
2023-01-28T08:55:25.169Z,103155.78
2023-01-28T08:57:53.782Z,103164.56
2023-01-28T09:00:25.110Z,103166.59
2023-01-28T09:02:54.101Z,103160.88
2023-01-28T09:05:23.785Z,103166.47
2023-01-28T09:07:52.193Z,103155.25
2023-01-28T09:10:22.024Z,103160.88
2023-01-28T09:12:50.386Z,103161.91
2023-01-28T09:15:19.239Z,103157.19
2023-01-28T09:17:58.125Z,103156.84
2023-01-28T09:20:26.637Z,103147.28
2023-01-28T09:22:55.166Z,103147.03
2023-01-28T09:25:23.767Z,103157.19
2023-01-28T09:27:52.315Z,103158.75
2023-01-28T09:30:20.935Z,103151.78
2023-01-28T09:32:53.237Z,103162.34
2023-01-28T09:35:22.460Z,103166.16
2023-01-28T09:37:52.122Z,103158.66
2023-01-28T09:40:28.373Z,103158.50
2023-01-28T09:43:10.995Z,103158.28
2023-01-28T09:45:43.411Z,103154.63
2023-01-28T09:48:21.744Z,103157.31
2023-01-28T09:50:56.031Z,103156.50
2023-01-28T09:53:29.635Z,103163.66
2023-01-28T09:56:03.028Z,103158.72
2023-01-28T09:58:31.737Z,103169.16
2023-01-28T10:01:08.559Z,103150.47
2023-01-28T10:03:52.462Z,103144.81
2023-01-28T10:06:30.531Z,103152.03
2023-01-28T10:09:36.913Z,103158.63
2023-01-28T10:12:18.514Z,103154.13
2023-01-28T10:15:01.883Z,103142.03
2023-01-28T10:17:36.865Z,103142.00
2023-01-28T10:20:20.776Z,103122.91
2023-01-28T10:22:55.291Z,103124.25
2023-01-28T10:25:27.252Z,103132.31
2023-01-28T10:27:55.537Z,103116.66
2023-01-28T10:30:27.313Z,103113.13
2023-01-28T10:33:01.214Z,103102.47
2023-01-28T10:35:33.078Z,103088.19
2023-01-28T10:38:06.577Z,103072.97
2023-01-28T10:40:35.787Z,103068.81
2023-01-28T10:43:05.223Z,103056.94
2023-01-28T10:45:40.263Z,103046.09
2023-01-28T10:48:14.732Z,103043.91
2023-01-28T10:50:52.550Z,103057.88
2023-01-28T10:53:21.054Z,103055.47
2023-01-28T10:55:55.200Z,103050.66
2023-01-28T10:58:29.472Z,103048.75
2023-01-28T11:01:01.977Z,103031.31
2023-01-28T11:03:30.935Z,103035.63
2023-01-28T11:06:01.089Z,103042.66
2023-01-28T11:08:31.651Z,103044.41
2023-01-28T11:11:00.541Z,103040.06
2023-01-28T11:13:31.658Z,103049.78
2023-01-28T11:16:05.139Z,103043.84
2023-01-28T11:18:39.655Z,103053.56
2023-01-28T11:21:20.318Z,103058.19
2023-01-28T11:23:58.984Z,103067.56
2023-01-28T11:26:32.278Z,103059.38
2023-01-28T11:29:01.256Z,103059.72
2023-01-28T11:31:30.134Z,103060.84
2023-01-28T11:34:00.561Z,103068.03
2023-01-28T11:36:32.662Z,103062.91
2023-01-28T11:39:05.569Z,103051.56
2023-01-28T11:41:36.449Z,103063.06
2023-01-28T11:44:17.895Z,103056.38
2023-01-28T11:47:07.601Z,103062.50
2023-01-28T11:49:55.502Z,103066.06
2023-01-28T11:53:05.110Z,103057.63
2023-01-28T11:55:46.952Z,103059.75
2023-01-28T11:58:24.277Z,103053.34
2023-01-28T12:01:04.614Z,103048.38
2023-01-28T12:04:04.309Z,103038.81
2023-01-28T12:06:58.471Z,103019.03
2023-01-28T12:09:35.933Z,103016.75
2023-01-28T12:12:39.479Z,103012.00
2023-01-28T12:15:57.418Z,103030.56
2023-01-28T12:18:47.785Z,103019.59
2023-01-28T12:21:28.278Z,103009.06
2023-01-28T12:24:13.395Z,103009.09
2023-01-28T12:26:52.360Z,103006.34
2023-01-28T12:29:35.864Z,103007.09
2023-01-28T12:32:19.431Z,103006.81
2023-01-28T12:35:08.032Z,102993.94
2023-01-28T12:37:52.910Z,102983.50
2023-01-28T12:40:50.979Z,102978.31
2023-01-28T12:43:39.608Z,102979.53
2023-01-28T12:46:19.794Z,102984.09
2023-01-28T12:48:52.525Z,102990.38
2023-01-28T12:51:26.209Z,102993.22
2023-01-28T12:54:02.182Z,102991.91
2023-01-28T12:56:35.279Z,102993.81
2023-01-28T12:59:12.673Z,102986.63
2023-01-28T13:01:48.090Z,102981.81
2023-01-28T13:04:26.448Z,102989.72
2023-01-28T13:07:00.107Z,102985.66
2023-01-28T13:09:30.165Z,102981.09
2023-01-28T13:12:00.993Z,102988.53
2023-01-28T13:14:33.479Z,102980.84
2023-01-28T13:17:11.672Z,102992.13
2023-01-28T13:19:42.673Z,102981.03
2023-01-28T13:22:28.437Z,102978.34
2023-01-28T13:24:59.901Z,102980.03
2023-01-28T13:27:30.083Z,102975.44
2023-01-28T13:30:25.612Z,102977.84
2023-01-28T13:33:00.207Z,102976.91
2023-01-28T13:35:39.635Z,102979.91
2023-01-28T13:38:11.551Z,102977.03
2023-01-28T13:40:42.832Z,102975.31
2023-01-28T13:43:29.311Z,102966.06
2023-01-28T13:46:01.756Z,102969.34
2023-01-28T13:48:36.318Z,102972.50
2023-01-28T13:51:05.941Z,102972.28
2023-01-28T13:53:42.757Z,102969.72
2023-01-28T13:56:22.510Z,102960.78
2023-01-28T13:59:36.999Z,102971.75
2023-01-28T14:02:43.150Z,102978.31
2023-01-28T14:05:57.652Z,102974.16
2023-01-28T14:09:04.568Z,102974.69
2023-01-28T14:12:12.075Z,102978.63
2023-01-28T14:15:29.843Z,102974.59
2023-01-28T14:18:01.412Z,102977.59
2023-01-28T14:20:37.810Z,102988.66
2023-01-28T14:23:08.648Z,102992.75
2023-01-28T14:26:00.111Z,102997.50
2023-01-28T14:28:40.091Z,102996.34
2023-01-28T14:31:13.602Z,103011.94
2023-01-28T14:33:44.923Z,103024.00
2023-01-28T14:36:14.210Z,103020.22
2023-01-28T14:38:45.486Z,103018.22
2023-01-28T14:41:25.172Z,103018.06
2023-01-28T14:43:55.930Z,103008.44
2023-01-28T14:46:37.408Z,103013.56
2023-01-28T14:49:26.981Z,103009.78
2023-01-28T14:52:22.686Z,103003.50
2023-01-28T14:55:04.792Z,103003.41
2023-01-28T14:57:47.024Z,103004.97
2023-01-28T15:00:22.542Z,102997.06
2023-01-28T15:02:51.339Z,102998.84
2023-01-28T15:05:24.828Z,102990.13
2023-01-28T15:07:53.605Z,102993.47
2023-01-28T15:10:27.015Z,103000.31
2023-01-28T15:12:58.833Z,103007.97
2023-01-28T15:15:32.807Z,103008.78
2023-01-28T15:18:06.133Z,103016.53
2023-01-28T15:20:36.241Z,103019.03
2023-01-28T15:23:08.257Z,103013.69
2023-01-28T15:25:36.738Z,103010.09
2023-01-28T15:28:05.743Z,103010.88
2023-01-28T15:30:34.301Z,103006.41
2023-01-28T15:33:06.929Z,103014.06
2023-01-28T15:35:38.152Z,103010.31
2023-01-28T15:38:07.039Z,103004.94
2023-01-28T15:40:43.765Z,102990.88
2023-01-28T15:43:21.236Z,102978.41
2023-01-28T15:45:51.253Z,102971.22
2023-01-28T15:48:19.674Z,102978.78
2023-01-28T15:50:49.692Z,102979.63
2023-01-28T15:53:18.293Z,102973.44
2023-01-28T15:55:47.318Z,102968.94
2023-01-28T15:58:41.284Z,102969.59
2023-01-28T16:01:18.169Z,102972.09
2023-01-28T16:03:49.299Z,102984.13
2023-01-28T16:06:23.131Z,102983.97
2023-01-28T16:08:56.648Z,102978.66
2023-01-28T16:11:31.608Z,102964.69
2023-01-28T16:14:00.701Z,102963.63
2023-01-28T16:16:32.557Z,102959.16
2023-01-28T16:19:02.516Z,102957.19
2023-01-28T16:21:37.269Z,102960.44
2023-01-28T16:24:09.615Z,102952.28
2023-01-28T16:26:38.296Z,102950.19
2023-01-28T16:29:16.977Z,102959.22
2023-01-28T16:31:45.614Z,102968.16
2023-01-28T16:34:14.093Z,102979.13
2023-01-28T16:36:44.942Z,102974.56
2023-01-28T16:39:13.506Z,102981.47
2023-01-28T16:41:44.753Z,102979.84
2023-01-28T16:44:15.488Z,102990.31
2023-01-28T16:46:44.302Z,102988.66
2023-01-28T16:49:12.819Z,102991.31
2023-01-28T16:51:44.836Z,102987.09
2023-01-28T16:54:15.688Z,102992.19
2023-01-28T16:56:47.620Z,102992.28
2023-01-28T16:59:17.348Z,102995.72
2023-01-28T17:01:46.439Z,102993.84
2023-01-28T17:04:15.181Z,102992.03
2023-01-28T17:06:46.340Z,102994.72
2023-01-28T17:09:16.477Z,103001.72
2023-01-28T17:11:44.843Z,103002.59
2023-01-28T17:14:13.255Z,103012.09
2023-01-28T17:16:41.644Z,103001.66
2023-01-28T17:19:09.988Z,103004.31
2023-01-28T17:21:38.347Z,103013.00
2023-01-28T17:24:09.356Z,103016.44
2023-01-28T17:26:38.393Z,103018.03
2023-01-28T17:29:08.279Z,103025.94
2023-01-28T17:31:37.285Z,103033.72
2023-01-28T17:34:07.189Z,103045.84
2023-01-28T17:36:35.849Z,103046.63
2023-01-28T17:39:06.011Z,103040.53
2023-01-28T17:41:35.760Z,103024.84
2023-01-28T17:44:05.133Z,103031.84
2023-01-28T17:46:33.746Z,103030.03
2023-01-28T17:49:03.963Z,103029.16
2023-01-28T17:51:32.355Z,103035.25
2023-01-28T17:54:00.879Z,103033.47
2023-01-28T17:56:31.189Z,103028.28
2023-01-28T17:59:03.859Z,103043.88
2023-01-28T18:01:33.061Z,103046.38
2023-01-28T18:04:02.233Z,103051.47
2023-01-28T18:06:34.531Z,103053.19
2023-01-28T18:09:03.036Z,103047.09
2023-01-28T18:11:33.330Z,103041.00
2023-01-28T18:14:03.032Z,103039.13
2023-01-28T18:16:31.669Z,103036.41
2023-01-28T18:19:00.451Z,103032.00
2023-01-28T18:21:51.204Z,103035.31
2023-01-28T18:24:20.626Z,103025.38
2023-01-28T18:26:49.118Z,103037.22
2023-01-28T18:29:20.782Z,103035.22
2023-01-28T18:31:49.827Z,103036.84
2023-01-28T18:34:19.112Z,103033.19
2023-01-28T18:36:48.102Z,103033.88
2023-01-28T18:39:17.648Z,103039.00
2023-01-28T18:41:45.983Z,103034.69
2023-01-28T18:44:16.244Z,103043.47
2023-01-28T18:46:46.115Z,103040.06
2023-01-28T18:49:14.827Z,103040.25
2023-01-28T18:51:43.992Z,103049.03
2023-01-28T18:54:15.626Z,103044.75
2023-01-28T18:56:45.075Z,103043.13
2023-01-28T18:59:15.599Z,103040.53
2023-01-28T19:01:47.853Z,103037.22
2023-01-28T19:04:17.107Z,103036.22
2023-01-28T19:06:45.646Z,103029.41
2023-01-28T19:09:15.892Z,103037.22
2023-01-28T19:11:44.848Z,103024.31
2023-01-28T19:14:15.596Z,103030.41
2023-01-28T19:16:45.782Z,103023.50
2023-01-28T19:19:14.211Z,103020.00
2023-01-28T19:21:42.607Z,103020.00
2023-01-28T19:24:14.286Z,103025.22
2023-01-28T19:26:44.983Z,103015.69
2023-01-28T19:29:16.061Z,103021.78
2023-01-28T19:31:49.082Z,103014.00
2023-01-28T19:34:17.879Z,103012.28
2023-01-28T19:36:46.804Z,103015.81
2023-01-28T19:39:16.075Z,103014.97
2023-01-28T19:41:45.030Z,103014.00
2023-01-28T19:44:13.502Z,103013.22
2023-01-28T19:46:42.290Z,103006.28
2023-01-28T19:49:13.006Z,103007.19
2023-01-28T19:51:41.540Z,103005.47
2023-01-28T19:54:10.038Z,102994.19
2023-01-28T19:56:38.747Z,102996.00
2023-01-28T19:59:07.733Z,102998.59
2023-01-28T20:01:36.890Z,102999.38
2023-01-28T20:04:05.706Z,102988.09
2023-01-28T20:06:37.151Z,102988.88
2023-01-28T20:09:09.096Z,102995.06
2023-01-28T20:11:39.259Z,102988.19
2023-01-28T20:14:08.027Z,102994.28
2023-01-28T20:16:38.317Z,102994.28
2023-01-28T20:19:09.528Z,102990.81
2023-01-28T20:21:39.248Z,102998.59
2023-01-28T20:24:08.604Z,102994.19
2023-01-28T20:26:39.099Z,102991.59
2023-01-28T20:29:11.074Z,102989.00
2023-01-28T20:31:41.188Z,102980.41
2023-01-28T20:34:13.836Z,102988.28
2023-01-28T20:36:44.241Z,102987.38
2023-01-28T20:39:13.358Z,102981.34
2023-01-28T20:41:41.920Z,102981.47
2023-01-28T20:44:10.519Z,102990.16
2023-01-28T20:46:39.028Z,102984.88
2023-01-28T20:49:08.230Z,102988.38
2023-01-28T20:51:38.350Z,102983.16
2023-01-28T20:54:08.353Z,102984.94
2023-01-28T20:56:36.757Z,102989.34
2023-01-28T20:59:09.154Z,102987.53
2023-01-28T21:01:38.731Z,102995.44
2023-01-28T21:04:10.592Z,102994.56
2023-01-28T21:06:39.967Z,102995.44
2023-01-28T21:09:10.324Z,103001.53
2023-01-28T21:11:38.733Z,103011.03
2023-01-28T21:14:07.152Z,103011.94
2023-01-28T21:16:40.991Z,103010.31
2023-01-28T21:19:09.420Z,103003.34
2023-01-28T21:21:37.963Z,103012.13
2023-01-28T21:24:07.921Z,103001.72
2023-01-28T21:26:37.678Z,103004.34
2023-01-28T21:29:06.470Z,103000.13
2023-01-28T21:31:34.814Z,102998.31
2023-01-28T21:34:03.159Z,103001.81
2023-01-28T21:36:34.493Z,103001.72
2023-01-28T21:39:03.595Z,102998.31
2023-01-28T21:41:33.263Z,102993.13
2023-01-28T21:44:03.279Z,102988.81
2023-01-28T21:46:35.156Z,102980.13
2023-01-28T21:49:06.293Z,102992.31
2023-01-28T21:51:36.600Z,102987.91
2023-01-28T21:54:06.526Z,102984.44
2023-01-28T21:56:34.949Z,102974.81
2023-01-28T21:59:22.226Z,102980.75
2023-01-28T22:01:50.796Z,102977.09
2023-01-28T22:04:19.178Z,102974.47
2023-01-28T22:06:47.731Z,102966.59
2023-01-28T22:09:16.167Z,102966.59
2023-01-28T22:11:46.380Z,102953.59
2023-01-28T22:14:16.653Z,102950.09
2023-01-28T22:16:45.450Z,102945.78
2023-01-28T22:19:15.090Z,102940.59
2023-01-28T22:21:46.785Z,102943.19
2023-01-28T22:24:17.808Z,102931.91
2023-01-28T22:26:48.074Z,102926.59
2023-01-28T22:29:20.274Z,102932.69
2023-01-28T22:31:49.995Z,102917.81
2023-01-28T22:34:20.210Z,102919.44
2023-01-28T22:36:49.096Z,102914.06
2023-01-28T22:39:19.088Z,102916.41
2023-01-28T22:41:47.872Z,102909.34
2023-01-28T22:44:19.672Z,102916.94
2023-01-28T22:46:48.871Z,102921.97
2023-01-28T22:49:17.365Z,102906.00
2023-01-28T22:51:45.696Z,102913.53
2023-01-28T22:54:15.089Z,102912.28
2023-01-28T22:56:43.592Z,102910.84
2023-01-28T22:59:13.008Z,102911.38
2023-01-28T23:01:43.060Z,102906.72
2023-01-28T23:04:12.231Z,102900.34
2023-01-28T23:06:40.542Z,102886.09
2023-01-28T23:09:08.926Z,102885.91
2023-01-28T23:11:37.229Z,102895.22
2023-01-28T23:14:23.242Z,102905.78
2023-01-28T23:17:10.322Z,102915.66
2023-01-28T23:19:56.523Z,102915.22
2023-01-28T23:22:46.866Z,102921.56
2023-01-28T23:25:15.609Z,102920.97
2023-01-28T23:27:44.304Z,102920.34
2023-01-28T23:30:15.115Z,102929.28
2023-01-28T23:32:49.208Z,102918.19
2023-01-28T23:35:19.234Z,102906.19
2023-01-28T23:37:48.375Z,102905.47
2023-01-28T23:40:17.522Z,102896.88
2023-01-28T23:42:49.880Z,102900.47
2023-01-28T23:45:18.683Z,102903.88
2023-01-28T23:47:49.204Z,102897.06
2023-01-28T23:50:18.768Z,102893.75
2023-01-28T23:52:47.216Z,102903.34
2023-01-28T23:55:16.680Z,102895.63
2023-01-28T23:57:44.951Z,102881.84
